Time;durP1;ratioP1;P1;durP2;ratioP2;P2;SDS_P1;SDS_P2;PMS_P1;PMS_P2;Temp;Humidity;BMP_temperature;BMP_pressure;BME280_temperature;BME280_humidity;BME280_pressure;Samples;Min_cycle;Max_cycle;Signal;HPM_P1;HPM_P2
2022/02/27 00:01:20;;;;;;;3.60;1.73;;;;;;;1.24;90.77;102189.38;5052930;28;20178;-72
2022/02/27 00:03:45;;;;;;;3.03;1.30;;;;;;;1.29;90.78;102186.88;5052939;28;20639;-72
2022/02/27 00:06:11;;;;;;;1.50;1.40;;;;;;;1.40;91.17;102194.34;5052882;28;20209;-72
2022/02/27 00:08:36;;;;;;;1.50;0.90;;;;;;;1.49;90.79;102195.00;5034832;28;20266;-72
2022/02/27 00:11:02;;;;;;;2.63;1.13;;;;;;;1.51;90.74;102206.38;5052845;28;20256;-72
2022/02/27 00:13:27;;;;;;;2.37;1.47;;;;;;;1.61;90.32;102200.59;5053002;28;20171;-72
2022/02/27 00:15:52;;;;;;;2.33;2.10;;;;;;;1.68;89.60;102209.47;5052837;28;20175;-72
2022/02/27 00:18:17;;;;;;;5.33;1.87;;;;;;;1.56;89.09;102198.50;5052741;28;20186;-72
2022/02/27 00:20:44;;;;;;;4.60;1.37;;;;;;;1.51;89.21;102202.84;5052761;28;20187;-72
2022/02/27 00:23:09;;;;;;;5.13;3.90;;;;;;;0.88;89.77;102193.28;5052826;28;20180;-73
2022/02/27 00:25:34;;;;;;;7.53;4.50;;;;;;;0.64;91.46;102187.63;5052529;28;20657;-72
2022/02/27 00:28:01;;;;;;;4.40;3.93;;;;;;;0.15;93.68;102177.94;5052400;28;20190;-72
2022/02/27 00:30:27;;;;;;;4.43;4.03;;;;;;;-0.09;95.42;102174.72;5052325;28;20202;-72
2022/02/27 00:32:52;;;;;;;5.33;4.20;;;;;;;0.03;96.86;102191.09;5052557;28;20224;-72
2022/02/27 00:35:18;;;;;;;5.83;3.63;;;;;;;0.19;96.16;102188.09;5052407;28;20190;-73
2022/02/27 00:37:44;;;;;;;7.00;4.27;;;;;;;0.02;95.28;102188.63;5052326;28;20171;-71
2022/02/27 00:40:10;;;;;;;6.03;3.67;;;;;;;-0.12;95.27;102185.03;5052803;28;20198;-73
2022/02/27 00:42:36;;;;;;;5.20;4.70;;;;;;;-0.46;97.67;102178.59;5052359;28;20572;-72
2022/02/27 00:45:01;;;;;;;5.37;3.97;;;;;;;-0.70;99.04;102174.50;5052275;28;20426;-72
2022/02/27 00:47:27;;;;;;;5.77;4.20;;;;;;;-0.41;100.00;102186.91;5052123;28;20186;-72
2022/02/27 00:49:52;;;;;;;4.83;3.80;;;;;;;-0.34;100.00;102182.41;5052160;28;20175;-73
2022/02/27 00:52:22;;;;;;;4.43;3.60;;;;;;;-0.26;100.00;102189.47;5052219;28;20286;-73
2022/02/27 00:54:48;;;;;;;4.97;4.47;;;;;;;-0.32;100.00;102183.03;5052784;28;20171;-73
2022/02/27 00:57:13;;;;;;;7.67;3.60;;;;;;;-0.40;100.00;102177.81;5052080;28;20179;-72
2022/02/27 00:59:43;;;;;;;5.03;3.73;;;;;;;-0.26;100.00;102172.53;5052112;28;20167;-73
2022/02/27 01:02:09;;;;;;;3.80;3.20;;;;;;;-0.18;100.00;102175.06;5051201;28;20217;-73
2022/02/27 01:04:34;;;;;;;5.47;4.40;;;;;;;-0.37;100.00;102174.75;5033812;28;20179;-72
2022/02/27 01:07:00;;;;;;;3.97;3.60;;;;;;;-0.53;100.00;102174.22;5051753;28;20206;-74
2022/02/27 01:09:25;;;;;;;6.40;3.47;;;;;;;-0.32;100.00;102182.19;5051818;28;20259;-72
2022/02/27 01:11:50;;;;;;;5.50;3.60;;;;;;;-0.36;99.86;102187.13;5051791;28;20201;-73
2022/02/27 01:14:15;;;;;;;2.97;2.60;;;;;;;-0.33;99.31;102185.91;5051786;28;20523;-73
2022/02/27 01:16:41;;;;;;;5.90;2.97;;;;;;;-0.38;98.97;102172.25;5051811;28;20167;-72
2022/02/27 01:19:08;;;;;;;6.57;3.13;;;;;;;-0.31;98.69;102184.69;5051586;28;20214;-72
2022/02/27 01:21:33;;;;;;;3.37;2.33;;;;;;;-0.27;98.63;102184.31;5052042;28;20178;-72
2022/02/27 01:23:59;;;;;;;3.60;3.00;;;;;;;-0.45;98.91;102184.78;5051708;28;20180;-73
2022/02/27 01:26:24;;;;;;;4.37;2.83;;;;;;;-0.33;99.73;102192.09;5051933;28;20731;-72
2022/02/27 01:28:49;;;;;;;3.90;3.50;;;;;;;-0.14;99.68;102190.59;5051616;28;20183;-73
2022/02/27 01:31:15;;;;;;;2.97;2.60;;;;;;;-0.16;100.00;102202.53;5051442;28;20206;-73
2022/02/27 01:33:40;;;;;;;2.80;2.60;;;;;;;-0.23;99.59;102199.81;5051252;28;20174;-73
2022/02/27 01:36:07;;;;;;;7.17;2.50;;;;;;;-0.27;100.00;102195.88;5051963;28;20203;-71
2022/02/27 01:38:32;;;;;;;6.80;3.27;;;;;;;-0.26;99.69;102194.84;5050972;28;20175;-71
2022/02/27 01:40:59;;;;;;;15.13;5.40;;;;;;;-0.35;100.00;102201.38;5052484;28;20534;-73
2022/02/27 01:43:24;;;;;;;6.67;4.93;;;;;;;-0.41;100.00;102194.97;5060068;28;20580;-73
2022/02/27 01:45:50;;;;;;;4.70;4.00;;;;;;;-0.16;100.00;102203.38;5056149;28;20167;-71
2022/02/27 01:48:15;;;;;;;7.13;3.83;;;;;;;-0.11;99.63;102194.75;5051998;28;20611;-73
2022/02/27 01:50:41;;;;;;;4.13;2.83;;;;;;;-0.17;98.20;102206.25;5051165;28;20180;-73
2022/02/27 01:53:06;;;;;;;6.17;3.00;;;;;;;-0.48;98.43;102195.91;5051551;28;20205;-73
2022/02/27 01:55:31;;;;;;;3.37;2.80;;;;;;;-0.48;99.04;102196.75;5051095;28;20183;-72
2022/02/27 01:57:57;;;;;;;4.67;3.33;;;;;;;-0.57;99.19;102189.06;5050857;28;20182;-71
2022/02/27 02:00:22;;;;;;;6.37;2.80;;;;;;;-0.61;100.00;102189.41;5051019;28;20179;-70
2022/02/27 02:02:48;;;;;;;2.43;2.07;;;;;;;-0.72;100.00;102186.47;5050856;28;20546;-73
2022/02/27 02:05:14;;;;;;;4.87;2.77;;;;;;;-0.80;100.00;102175.84;5050735;28;20216;-71
2022/02/27 02:07:40;;;;;;;5.07;2.30;;;;;;;-0.68;100.00;102183.19;5050693;28;20746;-71
2022/02/27 02:10:07;;;;;;;5.63;2.83;;;;;;;-0.44;100.00;102189.13;5050886;28;20167;-73
2022/02/27 02:12:32;;;;;;;5.13;2.03;;;;;;;-0.66;100.00;102183.81;5050112;28;20218;-73
2022/02/27 02:14:59;;;;;;;2.40;2.20;;;;;;;-0.84;100.00;102177.28;5050802;28;20179;-73
2022/02/27 02:17:25;;;;;;;3.47;1.90;;;;;;;-0.65;100.00;102188.16;5050549;28;20183;-73
2022/02/27 02:19:54;;;;;;;8.90;2.27;;;;;;;-0.51;100.00;102191.78;5050563;28;20175;-73
2022/02/27 02:22:20;;;;;;;5.10;2.57;;;;;;;-0.40;100.00;102193.09;5050628;28;20171;-74
2022/02/27 02:24:45;;;;;;;2.90;2.33;;;;;;;-0.57;100.00;102191.75;5050655;28;20532;-72
2022/02/27 02:27:11;;;;;;;4.90;2.30;;;;;;;-0.36;100.00;102202.41;5032396;28;20183;-73
2022/02/27 02:29:36;;;;;;;6.43;3.30;;;;;;;-0.40;100.00;102190.41;5050300;28;20201;-72
2022/02/27 02:32:02;;;;;;;3.43;2.10;;;;;;;-0.38;100.00;102199.09;5050488;28;20226;-73
2022/02/27 02:34:27;;;;;;;4.33;2.30;;;;;;;-0.28;100.00;102190.72;5050521;28;20175;-75
2022/02/27 02:36:55;;;;;;;4.43;1.90;;;;;;;-0.21;100.00;102195.09;5032348;28;20190;-73
2022/02/27 02:39:21;;;;;;;5.53;2.73;;;;;;;-0.15;99.79;102194.28;5050660;28;20260;-72
2022/02/27 02:41:47;;;;;;;2.10;1.90;;;;;;;-0.16;99.96;102187.25;5050431;28;20264;-73
2022/02/27 02:44:13;;;;;;;3.03;2.03;;;;;;;-0.32;99.21;102184.88;5050187;28;20207;-74
2022/02/27 02:46:39;;;;;;;3.60;2.40;;;;;;;-0.78;99.71;102171.13;5050442;28;20179;-72
2022/02/27 02:49:06;;;;;;;2.60;2.40;;;;;;;-0.62;100.00;102181.56;5050403;28;20253;-74
2022/02/27 02:51:32;;;;;;;9.87;1.93;;;;;;;-0.44;100.00;102187.28;5050408;28;20222;-74
2022/02/27 02:53:58;;;;;;;5.33;3.23;;;;;;;-0.67;100.00;102184.84;5050431;28;20183;-73
2022/02/27 02:56:24;;;;;;;2.70;2.00;;;;;;;-0.51;100.00;102188.25;5050132;28;20521;-74
2022/02/27 02:58:49;;;;;;;3.77;2.07;;;;;;;-0.28;100.00;102188.84;5050073;28;20179;-74
2022/02/27 03:01:16;;;;;;;4.00;2.23;;;;;;;-0.23;100.00;102190.94;5050295;28;20229;-75
2022/02/27 03:03:44;;;;;;;2.60;2.30;;;;;;;-0.25;100.00;102193.81;5032337;28;20175;-74
2022/02/27 03:06:10;;;;;;;3.90;1.67;;;;;;;-0.26;99.03;102191.34;5050182;28;20561;-74
2022/02/27 03:08:37;;;;;;;2.93;2.00;;;;;;;-0.32;98.63;102183.03;5031997;28;20650;-72
2022/02/27 03:11:03;;;;;;;2.87;1.67;;;;;;;-0.32;98.41;102184.88;5049983;28;20180;-72
2022/02/27 03:13:28;;;;;;;4.97;3.10;;;;;;;-0.34;98.71;102186.94;5049893;28;20187;-73
2022/02/27 03:15:54;;;;;;;3.57;2.60;;;;;;;-0.31;98.61;102178.47;5050065;28;20171;-73
2022/02/27 03:18:19;;;;;;;2.80;2.30;;;;;;;-0.39;98.47;102184.84;5049923;28;20177;-73
2022/02/27 03:20:44;;;;;;;3.27;1.80;;;;;;;-0.41;98.83;102176.16;5049718;28;20172;-72
2022/02/27 03:23:10;;;;;;;4.60;2.30;;;;;;;-0.41;99.58;102184.22;5050057;28;20178;-75
2022/02/27 03:25:35;;;;;;;3.07;2.30;;;;;;;-0.39;100.00;102181.34;5052239;28;20171;-74
2022/02/27 03:28:01;;;;;;;6.83;2.77;;;;;;;-0.48;99.78;102180.66;5053247;28;20184;-73
2022/02/27 03:30:26;;;;;;;9.37;2.63;;;;;;;-0.94;100.00;102170.38;5053438;28;20635;-73
2022/02/27 03:32:51;;;;;;;3.20;2.20;;;;;;;-0.90;100.00;102178.84;5053487;28;20289;-74
2022/02/27 03:35:19;;;;;;;1.97;1.87;;;;;;;-0.66;100.00;102175.75;5053529;28;20644;-73
2022/02/27 03:37:49;;;;;;;3.40;2.63;;;;;;;-0.56;100.00;102180.81;5053650;28;20171;-74
2022/02/27 03:40:15;;;;;;;3.53;2.17;;;;;;;-0.63;100.00;102164.63;5053496;28;20298;-73
2022/02/27 03:42:40;;;;;;;1.60;1.50;;;;;;;-0.50;100.00;102165.75;5053452;28;20270;-73
2022/02/27 03:45:06;;;;;;;2.90;2.60;;;;;;;-0.83;100.00;102174.38;5053366;28;20576;-74
2022/02/27 03:47:31;;;;;;;4.37;2.97;;;;;;;-1.42;100.00;102147.00;5053130;28;20175;-73
2022/02/27 03:49:57;;;;;;;3.60;2.17;;;;;;;-1.42;100.00;102153.19;5053271;28;20167;-73
2022/02/27 03:52:22;;;;;;;6.27;2.20;;;;;;;-1.22;100.00;102143.50;5053207;28;20293;-74
2022/02/27 03:54:47;;;;;;;3.53;2.20;;;;;;;-0.95;100.00;102170.56;5053204;28;20505;-76
2022/02/27 03:57:13;;;;;;;2.40;2.20;;;;;;;-1.01;100.00;102168.66;5052958;28;20167;-73
2022/02/27 03:59:38;;;;;;;4.33;2.70;;;;;;;-1.54;100.00;102152.84;5053011;28;20206;-71
2022/02/27 04:02:03;;;;;;;6.53;2.20;;;;;;;-1.46;100.00;102165.28;5053353;28;20270;-72
2022/02/27 04:04:29;;;;;;;3.70;1.93;;;;;;;-1.78;100.00;102152.34;5053018;28;20527;-71
2022/02/27 04:06:54;;;;;;;4.70;2.60;;;;;;;-2.10;100.00;102147.22;5052670;28;20182;-72
2022/02/27 04:09:19;;;;;;;5.93;2.87;;;;;;;-2.24;100.00;102150.72;5052707;28;20195;-71
2022/02/27 04:11:45;;;;;;;7.00;2.87;;;;;;;-2.43;100.00;102149.44;5034694;28;20202;-72
2022/02/27 04:14:10;;;;;;;7.93;3.37;;;;;;;-2.72;100.00;102152.91;5052707;28;20194;-72
2022/02/27 04:16:35;;;;;;;4.13;3.40;;;;;;;-2.42;100.00;102160.97;5052595;28;20171;-73
2022/02/27 04:19:01;;;;;;;6.07;3.33;;;;;;;-2.43;100.00;102172.69;5052936;28;20627;-75
2022/02/27 04:21:26;;;;;;;6.10;3.27;;;;;;;-2.09;100.00;102166.78;5052950;28;20175;-73
2022/02/27 04:23:52;;;;;;;3.47;2.83;;;;;;;-1.92;100.00;102170.09;5052365;28;20178;-74
2022/02/27 04:26:18;;;;;;;2.73;2.50;;;;;;;-1.71;100.00;102172.84;5052443;28;20207;-73
2022/02/27 04:28:43;;;;;;;5.40;2.87;;;;;;;-1.63;100.00;102175.41;5052197;28;20275;-74
2022/02/27 04:31:09;;;;;;;2.97;2.77;;;;;;;-1.77;100.00;102165.56;5052275;28;20206;-73
2022/02/27 04:33:34;;;;;;;3.77;3.47;;;;;;;-2.12;100.00;102172.53;5052689;28;20232;-73
2022/02/27 04:36:00;;;;;;;5.50;3.43;;;;;;;-2.01;100.00;102165.88;5052226;28;20183;-73
2022/02/27 04:38:26;;;;;;;6.07;2.87;;;;;;;-1.74;100.00;102172.38;5052234;28;20167;-74
2022/02/27 04:40:51;;;;;;;4.07;3.50;;;;;;;-1.58;100.00;102175.69;5052614;28;20432;-74
2022/02/27 04:43:16;;;;;;;5.57;3.20;;;;;;;-1.37;100.00;102182.09;5052088;28;20270;-72
2022/02/27 04:45:42;;;;;;;7.93;3.60;;;;;;;-1.35;100.00;102191.59;5052208;28;20180;-73
2022/02/27 04:48:07;;;;;;;3.73;2.63;;;;;;;-1.50;100.00;102188.97;5052383;28;20195;-74
2022/02/27 04:50:33;;;;;;;6.63;3.20;;;;;;;-1.52;100.00;102180.28;5051960;28;20534;-72
2022/02/27 04:52:58;;;;;;;6.60;3.53;;;;;;;-1.45;100.00;102183.03;5051876;28;20195;-73
2022/02/27 04:55:24;;;;;;;10.43;3.73;;;;;;;-1.72;100.00;102173.03;5051915;28;20179;-73
2022/02/27 04:57:49;;;;;;;5.80;2.83;;;;;;;-1.64;100.00;102170.25;5051601;28;20237;-76
2022/02/27 05:00:15;;;;;;;4.13;3.53;;;;;;;-1.83;100.00;102174.34;5051913;28;20167;-73
2022/02/27 05:02:40;;;;;;;11.97;3.50;;;;;;;-1.99;100.00;102167.34;5052307;28;20624;-73
2022/02/27 05:05:06;;;;;;;5.80;3.47;;;;;;;-2.07;100.00;102172.78;5051713;28;20202;-74
2022/02/27 05:07:32;;;;;;;5.20;3.67;;;;;;;-2.08;100.00;102167.63;5051780;28;20217;-74
2022/02/27 05:09:57;;;;;;;8.20;4.33;;;;;;;-2.16;100.00;102172.06;5051951;28;20418;-76
2022/02/27 05:12:23;;;;;;;4.17;3.77;;;;;;;-2.19;100.00;102171.59;5051433;28;20298;-74
2022/02/27 05:14:48;;;;;;;8.40;2.97;;;;;;;-2.23;100.00;102176.47;5051615;28;20266;-74
2022/02/27 05:17:13;;;;;;;4.77;3.93;;;;;;;-2.11;100.00;102182.22;5051422;28;20647;-74
2022/02/27 05:19:39;;;;;;;4.67;3.47;;;;;;;-2.25;100.00;102175.84;5051432;28;20180;-74
2022/02/27 05:22:04;;;;;;;11.37;3.40;;;;;;;-2.12;100.00;102189.41;5051553;28;20262;-75
2022/02/27 05:24:29;;;;;;;6.10;3.30;;;;;;;-2.14;100.00;102179.91;5051473;28;20186;-73
2022/02/27 05:26:55;;;;;;;6.77;3.20;;;;;;;-2.08;100.00;102191.72;5051336;28;20650;-73
2022/02/27 05:29:20;;;;;;;7.10;4.10;;;;;;;-2.19;100.00;102190.31;5051551;28;20593;-73
2022/02/27 05:31:46;;;;;;;4.93;2.77;;;;;;;-2.03;100.00;102189.31;5051100;28;20199;-73
2022/02/27 05:34:11;;;;;;;4.67;3.80;;;;;;;-2.47;100.00;102182.91;5051362;28;20171;-74
2022/02/27 05:36:37;;;;;;;3.67;3.13;;;;;;;-2.52;100.00;102179.97;5051689;28;20175;-73
2022/02/27 05:39:04;;;;;;;4.17;3.20;;;;;;;-2.46;100.00;102186.41;5051280;28;20183;-73
2022/02/27 05:41:29;;;;;;;5.83;3.60;;;;;;;-2.55;100.00;102187.53;5033124;28;20184;-76
2022/02/27 05:43:55;;;;;;;6.13;4.00;;;;;;;-2.55;100.00;102185.69;5051032;28;20429;-73
2022/02/27 05:46:21;;;;;;;3.53;3.23;;;;;;;-2.67;100.00;102183.63;5050759;28;20226;-74
2022/02/27 05:48:47;;;;;;;4.67;3.63;;;;;;;-2.59;100.00;102189.75;5050330;28;20480;-73
2022/02/27 05:51:12;;;;;;;2.93;2.37;;;;;;;-2.50;100.00;102193.16;5051002;28;20190;-75
2022/02/27 05:53:37;;;;;;;4.67;3.07;;;;;;;-2.42;100.00;102199.28;5050951;28;20179;-72
2022/02/27 05:56:03;;;;;;;3.00;2.67;;;;;;;-2.28;100.00;102210.19;5051009;28;20178;-73
2022/02/27 05:58:31;;;;;;;3.80;2.83;;;;;;;-2.38;100.00;102206.94;5050867;28;20262;-74
2022/02/27 06:00:57;;;;;;;4.53;3.73;;;;;;;-2.04;100.00;102217.94;5051147;28;20569;-74
2022/02/27 06:03:22;;;;;;;6.23;2.90;;;;;;;-1.97;100.00;102212.69;5051075;28;20445;-73
2022/02/27 06:05:47;;;;;;;3.27;2.83;;;;;;;-1.81;100.00;102218.69;5050771;28;20902;-74
2022/02/27 06:08:13;;;;;;;4.70;3.37;;;;;;;-1.66;100.00;102231.22;5050756;28;20171;-73
2022/02/27 06:10:38;;;;;;;6.57;2.93;;;;;;;-1.78;100.00;102222.00;5050662;28;20250;-73
2022/02/27 06:13:04;;;;;;;2.97;2.40;;;;;;;-1.73;100.00;102228.47;5050685;28;20202;-76
2022/02/27 06:15:29;;;;;;;5.33;3.03;;;;;;;-1.56;100.00;102231.78;5050919;28;20175;-74
2022/02/27 06:17:55;;;;;;;3.33;2.87;;;;;;;-1.52;100.00;102235.75;5050539;28;20206;-73
2022/02/27 06:20:20;;;;;;;11.37;3.07;;;;;;;-1.53;100.00;102232.22;5050755;28;20225;-73
2022/02/27 06:22:47;;;;;;;3.03;2.73;;;;;;;-1.46;100.00;102234.97;5050794;28;20237;-73
2022/02/27 06:25:14;;;;;;;7.00;3.30;;;;;;;-1.37;100.00;102241.91;5050643;28;20171;-73
2022/02/27 06:27:43;;;;;;;3.03;2.73;;;;;;;-1.27;100.00;102239.75;5050280;28;20434;-73
2022/02/27 06:30:10;;;;;;;3.97;2.80;;;;;;;-1.18;100.00;102245.00;5050349;28;20205;-73
2022/02/27 06:32:36;;;;;;;3.93;3.10;;;;;;;-1.12;100.00;102246.94;5050576;28;20468;-74
2022/02/27 06:35:02;;;;;;;8.43;3.23;;;;;;;-1.19;100.00;102244.16;5050415;28;20851;-73
2022/02/27 06:37:28;;;;;;;5.83;4.13;;;;;;;-1.15;100.00;102255.38;5046636;28;20175;-73
2022/02/27 06:39:53;;;;;;;4.87;3.87;;;;;;;-1.23;100.00;102251.75;5050270;28;20436;-76
2022/02/27 06:42:18;;;;;;;11.03;3.10;;;;;;;-1.24;100.00;102249.28;5050329;28;20206;-73
2022/02/27 06:44:44;;;;;;;4.87;3.43;;;;;;;-1.18;100.00;102243.13;5050446;28;20178;-74
2022/02/27 06:47:09;;;;;;;4.50;3.37;;;;;;;-1.12;100.00;102253.13;5050433;28;20179;-73
2022/02/27 06:49:35;;;;;;;5.53;3.27;;;;;;;-1.20;100.00;102255.91;5050378;28;20175;-74
2022/02/27 06:52:00;;;;;;;6.30;3.20;;;;;;;-1.29;100.00;102262.41;5050316;28;20636;-73
2022/02/27 06:54:26;;;;;;;10.30;4.17;;;;;;;-1.26;100.00;102262.88;5050129;28;20485;-73
2022/02/27 06:56:52;;;;;;;4.17;3.53;;;;;;;-1.16;100.00;102253.69;5050206;28;20278;-76
2022/02/27 06:59:17;;;;;;;4.67;3.97;;;;;;;-1.09;100.00;102258.09;5050287;28;20203;-73
2022/02/27 07:01:43;;;;;;;9.50;3.60;;;;;;;-1.04;100.00;102263.72;5036097;28;20457;-73
2022/02/27 07:04:09;;;;;;;4.30;4.00;;;;;;;-0.94;100.00;102269.63;5054131;28;20171;-73
2022/02/27 07:06:35;;;;;;;6.07;3.77;;;;;;;-0.85;100.00;102269.50;5053913;28;20262;-73
2022/02/27 07:09:00;;;;;;;5.43;3.73;;;;;;;-0.76;100.00;102276.41;5054046;28;20266;-75
2022/02/27 07:11:25;;;;;;;5.77;4.07;;;;;;;-0.70;100.00;102273.78;5053706;28;20228;-73
2022/02/27 07:13:50;;;;;;;7.43;3.27;;;;;;;-0.54;100.00;102279.94;5053674;28;20180;-74
2022/02/27 07:16:16;;;;;;;5.93;3.87;;;;;;;-0.42;100.00;102278.38;5053699;28;20182;-73
2022/02/27 07:18:42;;;;;;;8.27;4.00;;;;;;;-0.34;100.00;102283.59;5035795;28;20266;-73
2022/02/27 07:21:08;;;;;;;4.57;4.20;;;;;;;-0.22;100.00;102279.38;5053709;28;20238;-73
2022/02/27 07:23:34;;;;;;;6.87;3.67;;;;;;;-0.15;100.00;102295.53;5053577;28;20421;-74
2022/02/27 07:25:59;;;;;;;9.03;4.63;;;;;;;-0.05;100.00;102294.16;5053180;28;20653;-81
2022/02/27 07:28:24;;;;;;;7.50;3.83;;;;;;;0.01;100.00;102297.13;5053539;28;20195;-78
2022/02/27 07:30:50;;;;;;;4.80;4.20;;;;;;;0.13;100.00;102298.22;5053895;28;20265;-75
2022/02/27 07:33:15;;;;;;;5.83;3.90;;;;;;;0.19;100.00;102298.28;5053787;28;20238;-74
2022/02/27 07:35:40;;;;;;;5.40;4.27;;;;;;;0.28;100.00;102312.38;5054007;28;20500;-80
2022/02/27 07:38:06;;;;;;;6.07;3.97;;;;;;;0.34;100.00;102308.91;5053365;28;20183;-75
2022/02/27 07:40:31;;;;;;;5.20;4.73;;;;;;;0.42;100.00;102313.28;5053741;28;20187;-76
2022/02/27 07:42:56;;;;;;;6.13;4.90;;;;;;;0.45;100.00;102311.06;5053545;28;20258;-76
2022/02/27 07:45:22;;;;;;;8.57;3.67;;;;;;;0.53;100.00;102318.09;5053600;28;20716;-78
2022/02/27 07:47:47;;;;;;;5.63;4.63;;;;;;;0.62;100.00;102319.63;5053388;28;20214;-74
2022/02/27 07:50:13;;;;;;;8.80;5.30;;;;;;;0.67;100.00;102314.47;5053454;28;20599;-75
2022/02/27 07:52:39;;;;;;;5.63;5.10;;;;;;;0.81;100.00;102318.88;5053250;28;20669;-80
2022/02/27 07:55:04;;;;;;;11.37;5.07;;;;;;;0.88;100.00;102321.59;5053225;28;20172;-75
2022/02/27 07:57:30;;;;;;;4.90;4.40;;;;;;;0.95;100.00;102333.22;5035662;28;20631;-75
2022/02/27 07:59:55;;;;;;;3.43;3.00;;;;;;;1.03;100.00;102330.34;5053323;28;20175;-77
2022/02/27 08:02:20;;;;;;;8.23;5.80;;;;;;;1.03;100.00;102333.06;5053145;28;20260;-76
2022/02/27 08:04:46;;;;;;;8.27;5.03;;;;;;;1.10;100.00;102333.88;5053118;28;20186;-76
2022/02/27 08:07:11;;;;;;;6.33;4.50;;;;;;;1.18;100.00;102338.28;5052929;28;20214;-77
2022/02/27 08:09:36;;;;;;;6.47;4.57;;;;;;;1.28;100.00;102332.47;5053416;28;20266;-75
2022/02/27 08:12:02;;;;;;;6.13;5.03;;;;;;;1.36;100.00;102343.09;5052835;28;20215;-77
2022/02/27 08:14:27;;;;;;;5.33;4.87;;;;;;;1.45;100.00;102329.22;5053042;28;20222;-76
2022/02/27 08:16:53;;;;;;;8.33;4.23;;;;;;;1.53;100.00;102325.50;5053014;28;20188;-75
2022/02/27 08:19:18;;;;;;;6.37;3.90;;;;;;;1.62;100.00;102329.66;5053004;28;20258;-75
2022/02/27 08:21:43;;;;;;;14.13;4.00;;;;;;;1.69;100.00;102326.97;5052964;28;20193;-76
2022/02/27 08:24:09;;;;;;;6.57;3.83;;;;;;;1.70;100.00;102328.63;5052878;28;20191;-77
2022/02/27 08:26:35;;;;;;;8.40;4.60;;;;;;;1.72;100.00;102322.00;5052587;28;20270;-78
2022/02/27 08:29:02;;;;;;;11.47;4.57;;;;;;;1.79;100.00;102328.22;5052443;28;20187;-74
2022/02/27 08:31:29;;;;;;;3.83;2.93;;;;;;;1.91;100.00;102324.91;5049375;28;20168;-80
2022/02/27 08:33:55;;;;;;;10.50;3.70;;;;;;;2.01;100.00;102328.00;5041912;28;20182;-80
2022/02/27 08:36:20;;;;;;;4.23;3.00;;;;;;;2.13;99.54;102323.66;5038129;28;20187;-75
2022/02/27 08:38:47;;;;;;;5.43;3.33;;;;;;;2.26;98.33;102328.19;5032696;28;20187;-81
2022/02/27 08:41:14;;;;;;;6.17;4.13;;;;;;;2.32;97.39;102327.38;5017723;28;20642;-74
2022/02/27 08:43:39;;;;;;;5.70;3.53;;;;;;;2.36;96.71;102329.44;5046588;28;20198;-75
2022/02/27 08:46:05;;;;;;;9.17;4.57;;;;;;;2.42;96.51;102326.94;5055030;28;20175;-74
2022/02/27 08:48:30;;;;;;;8.40;6.47;;;;;;;2.46;96.41;102325.47;5056917;28;20179;-73
2022/02/27 08:50:56;;;;;;;6.43;4.30;;;;;;;2.48;95.63;102326.09;5052861;28;20175;-75
2022/02/27 08:53:21;;;;;;;5.23;3.63;;;;;;;2.56;95.63;102342.03;5052068;28;20210;-71
2022/02/27 08:55:47;;;;;;;5.70;2.97;;;;;;;2.62;95.31;102333.13;5052394;28;20180;-72
2022/02/27 08:58:12;;;;;;;4.30;3.37;;;;;;;2.67;95.11;102333.31;5052095;28;20175;-73
2022/02/27 09:00:38;;;;;;;8.67;3.77;;;;;;;2.80;94.63;102335.13;5052172;28;20277;-73
2022/02/27 09:03:03;;;;;;;6.53;3.93;;;;;;;2.89;93.51;102337.41;5052022;28;20183;-73
2022/02/27 09:05:28;;;;;;;4.87;3.30;;;;;;;2.98;92.43;102338.78;5051909;28;20194;-72
2022/02/27 09:07:54;;;;;;;5.50;3.73;;;;;;;3.12;91.36;102317.13;5051871;28;20175;-73
2022/02/27 09:10:19;;;;;;;4.23;3.67;;;;;;;3.18;90.21;102327.91;5051759;28;20183;-72
2022/02/27 09:12:45;;;;;;;3.37;3.00;;;;;;;3.28;89.06;102325.56;5051736;28;20207;-74
2022/02/27 09:15:12;;;;;;;3.30;3.00;;;;;;;3.35;87.11;102322.84;5051764;28;20179;-73
2022/02/27 09:17:37;;;;;;;8.23;3.73;;;;;;;3.43;86.12;102319.84;5051455;28;20562;-74
2022/02/27 09:20:05;;;;;;;2.93;2.63;;;;;;;3.50;85.28;102325.25;5051645;28;20179;-73
2022/02/27 09:22:30;;;;;;;4.47;3.23;;;;;;;3.59;85.12;102322.03;5050956;28;20179;-72
2022/02/27 09:24:55;;;;;;;3.43;2.70;;;;;;;3.63;84.18;102327.84;5051513;28;20178;-73
2022/02/27 09:27:21;;;;;;;6.73;3.07;;;;;;;3.73;83.21;102327.34;5051129;28;20583;-73
2022/02/27 09:29:46;;;;;;;5.73;3.23;;;;;;;3.82;81.90;102329.56;5051234;28;20368;-72
2022/02/27 09:32:11;;;;;;;4.83;2.90;;;;;;;3.92;82.24;102322.84;5051363;28;20203;-72
2022/02/27 09:34:37;;;;;;;6.53;3.00;;;;;;;3.97;81.00;102323.84;5045757;28;20541;-73
2022/02/27 09:37:02;;;;;;;3.70;2.30;;;;;;;4.06;80.51;102321.69;5050443;28;20215;-74
2022/02/27 09:39:30;;;;;;;4.33;2.73;;;;;;;4.18;79.65;102328.84;5050997;28;20168;-73
2022/02/27 09:41:56;;;;;;;2.17;1.97;;;;;;;4.17;78.76;102331.75;5033366;28;20217;-73
2022/02/27 09:44:22;;;;;;;4.23;2.23;;;;;;;4.24;78.15;102329.00;5051499;28;20202;-71
2022/02/27 09:46:48;;;;;;;5.13;3.80;;;;;;;4.25;76.69;102330.66;5051074;28;20175;-70
2022/02/27 09:49:15;;;;;;;4.63;2.47;;;;;;;4.36;76.96;102319.94;5033347;28;20623;-71
2022/02/27 09:51:41;;;;;;;2.63;2.43;;;;;;;4.32;75.69;102328.72;5051140;28;20199;-71
2022/02/27 09:54:09;;;;;;;5.60;2.37;;;;;;;4.45;75.99;102323.16;5051090;28;20183;-73
2022/02/27 09:56:34;;;;;;;4.40;2.47;;;;;;;4.48;75.60;102333.53;5050942;28;20179;-73
2022/02/27 09:59:00;;;;;;;3.73;3.13;;;;;;;4.56;74.91;102332.44;5050938;28;20585;-73
2022/02/27 10:01:25;;;;;;;7.13;5.10;;;;;;;4.46;77.87;102327.53;5051167;28;20632;-72
2022/02/27 10:03:51;;;;;;;4.23;3.83;;;;;;;4.21;79.50;102315.94;5051073;28;20283;-73
2022/02/27 10:06:18;;;;;;;6.53;4.80;;;;;;;4.32;80.42;102323.28;5050919;28;20191;-72
2022/02/27 10:08:45;;;;;;;6.77;4.17;;;;;;;4.40;81.16;102317.59;5050637;28;20237;-73
2022/02/27 10:11:13;;;;;;;5.57;4.80;;;;;;;4.39;80.70;102314.06;5050798;28;20182;-73
2022/02/27 10:13:42;;;;;;;10.90;4.53;;;;;;;4.58;81.88;102325.72;5050649;28;20219;-73
2022/02/27 10:16:14;;;;;;;9.23;4.60;;;;;;;4.60;80.61;102276.78;5050755;28;20171;-72
2022/02/27 10:18:49;;;;;;;8.73;5.50;;;;;;;4.55;80.05;102320.78;5050538;28;20183;-73
2022/02/27 10:21:19;;;;;;;7.23;5.47;;;;;;;4.63;79.63;102317.78;5050743;28;20262;-73
2022/02/27 10:23:54;;;;;;;4.70;4.30;;;;;;;4.74;79.73;102314.31;5050465;28;20171;-72
2022/02/27 10:26:24;;;;;;;8.43;5.27;;;;;;;4.71;79.23;102317.47;5050571;28;20268;-73
2022/02/27 10:29:10;;;;;;;5.20;4.70;;;;;;;4.87;79.15;102315.19;5050362;28;20191;-73
2022/02/27 10:31:37;;;;;;;3.93;3.57;;;;;;;4.93;78.25;102303.47;5049969;28;20292;-73
2022/02/27 10:34:17;;;;;;;5.67;4.60;;;;;;;5.05;77.40;102309.75;5052968;28;20186;-73
2022/02/27 10:37:04;;;;;;;11.60;8.83;;;;;;;5.26;78.39;102309.28;5056969;28;20178;-72
2022/02/27 10:39:34;;;;;;;6.87;5.83;;;;;;;5.24;76.20;102303.25;5057336;28;20189;-73
2022/02/27 10:42:08;;;;;;;7.57;5.60;;;;;;;5.22;75.76;102301.84;5057099;28;20665;-73
2022/02/27 10:44:35;;;;;;;7.37;5.47;;;;;;;5.30;75.33;102304.19;5057115;28;20270;-73
2022/02/27 10:47:12;;;;;;;9.17;6.97;;;;;;;5.39;74.98;102302.84;5057255;28;20254;-74
2022/02/27 10:49:38;;;;;;;5.57;4.67;;;;;;;5.50;74.39;102293.91;5056979;28;20706;-72
2022/02/27 10:52:31;;;;;;;5.03;4.00;;;;;;;5.79;75.15;102302.22;5056917;28;20194;-70
2022/02/27 10:54:59;;;;;;;7.37;5.53;;;;;;;5.63;75.20;102293.69;5053733;28;20511;-71
2022/02/27 10:57:26;;;;;;;5.80;5.20;;;;;;;5.48;78.08;102282.44;5056588;28;20531;-71
2022/02/27 10:59:53;;;;;;;7.47;5.60;;;;;;;5.51;79.49;102283.91;5056591;28;20205;-71
2022/02/27 11:02:20;;;;;;;10.07;5.47;;;;;;;5.77;79.48;102294.31;5056612;28;20198;-72
2022/02/27 11:04:48;;;;;;;6.73;6.07;;;;;;;5.76;78.57;102284.50;5056474;28;20647;-70
2022/02/27 11:07:14;;;;;;;4.40;3.77;;;;;;;5.75;75.06;102266.59;5056226;28;20190;-71
2022/02/27 11:09:41;;;;;;;8.00;2.77;;;;;;;5.90;70.40;102271.59;5056540;28;20175;-71
2022/02/27 11:12:07;;;;;;;6.67;2.47;;;;;;;6.14;70.83;102278.69;5056292;28;20199;-71
2022/02/27 11:14:33;;;;;;;5.27;2.90;;;;;;;6.49;67.14;102278.63;5056413;28;20174;-71
2022/02/27 11:16:59;;;;;;;3.30;2.50;;;;;;;6.68;66.29;102260.31;5056183;28;20642;-70
2022/02/27 11:19:25;;;;;;;7.03;3.67;;;;;;;6.71;64.70;102267.16;5056388;28;20175;-71